createdAt,value
2023-11-03T00:02:24.133Z,72.36
2023-11-03T00:04:50.664Z,72.86
2023-11-03T00:07:17.171Z,73.05
2023-11-03T00:09:43.659Z,74.30
2023-11-03T00:12:10.172Z,73.23
2023-11-03T00:14:36.648Z,73.17
2023-11-03T00:17:03.101Z,73.32
2023-11-03T00:19:29.730Z,73.18
2023-11-03T00:21:56.310Z,74.71
2023-11-03T00:24:22.771Z,73.77
2023-11-03T00:26:49.230Z,72.65
2023-11-03T00:29:15.673Z,73.62
2023-11-03T00:31:42.148Z,72.72
2023-11-03T00:34:08.645Z,73.56
2023-11-03T00:36:35.128Z,72.69
2023-11-03T00:39:01.593Z,74.42
2023-11-03T00:41:28.081Z,72.94
2023-11-03T00:43:54.550Z,74.09
2023-11-03T00:46:20.986Z,74.58
2023-11-03T00:48:47.531Z,74.96
2023-11-03T00:51:14.002Z,75.41
2023-11-03T00:53:40.449Z,73.07
2023-11-03T00:56:06.963Z,73.37
2023-11-03T00:58:33.405Z,73.10
2023-11-03T01:00:59.912Z,73.74
2023-11-03T01:03:26.439Z,73.92
2023-11-03T01:05:52.956Z,73.84
2023-11-03T01:08:19.423Z,74.52
2023-11-03T01:10:45.900Z,72.05
2023-11-03T01:13:15.827Z,74.29
2023-11-03T01:15:42.856Z,74.53
2023-11-03T01:18:09.496Z,74.64
2023-11-03T01:20:35.958Z,74.09
2023-11-03T01:23:02.446Z,72.85
2023-11-03T01:25:28.879Z,73.04
2023-11-03T01:27:55.355Z,72.25
2023-11-03T01:30:21.985Z,72.61
2023-11-03T01:32:48.691Z,71.64
2023-11-03T01:35:15.180Z,71.27
2023-11-03T01:37:41.643Z,71.55
2023-11-03T01:40:08.105Z,71.29
2023-11-03T01:42:34.645Z,71.63
2023-11-03T01:45:01.168Z,71.91
2023-11-03T01:47:27.634Z,72.95
2023-11-03T01:49:54.108Z,71.71
2023-11-03T01:52:20.564Z,72.16
2023-11-03T01:54:47.078Z,71.36
2023-11-03T01:57:13.567Z,72.19
2023-11-03T01:59:40.057Z,72.33
2023-11-03T02:02:06.513Z,72.32
2023-11-03T02:04:32.991Z,72.12
2023-11-03T02:06:59.433Z,72.84
2023-11-03T02:09:25.904Z,72.14
2023-11-03T02:11:52.344Z,72.08
2023-11-03T02:14:18.982Z,71.10
2023-11-03T02:16:45.476Z,71.64
2023-11-03T02:19:15.495Z,71.61
2023-11-03T02:21:43.114Z,70.84
2023-11-03T02:24:09.596Z,71.80
2023-11-03T02:26:36.111Z,71.66
2023-11-03T02:29:02.593Z,72.05
2023-11-03T02:31:29.025Z,71.42
2023-11-03T02:33:55.501Z,72.36
2023-11-03T02:36:22.000Z,72.73
2023-11-03T02:38:48.443Z,72.68
2023-11-03T02:41:14.900Z,72.79
2023-11-03T02:43:41.338Z,72.56
2023-11-03T02:46:07.835Z,73.08
2023-11-03T02:48:34.323Z,73.42
2023-11-03T02:51:00.808Z,73.77
2023-11-03T02:53:27.274Z,73.82
2023-11-03T02:55:53.730Z,73.41
2023-11-03T02:58:20.201Z,74.56
2023-11-03T03:00:46.647Z,74.21
2023-11-03T03:03:13.129Z,74.30
2023-11-03T03:05:39.624Z,74.29
2023-11-03T03:08:06.111Z,74.52
2023-11-03T03:10:32.591Z,74.63
2023-11-03T03:12:59.039Z,73.63
2023-11-03T03:15:25.508Z,74.11
2023-11-03T03:17:52.062Z,74.08
2023-11-03T03:20:18.653Z,74.21
2023-11-03T03:22:45.271Z,73.80
2023-11-03T03:25:11.750Z,74.59
2023-11-03T03:27:38.275Z,73.84
2023-11-03T03:30:04.733Z,75.06
2023-11-03T03:32:31.467Z,73.46
2023-11-03T03:34:58.040Z,73.10
2023-11-03T03:37:24.493Z,73.71
2023-11-03T03:39:50.962Z,74.06
2023-11-03T03:42:17.417Z,73.82
2023-11-03T03:44:43.887Z,73.52
2023-11-03T03:47:10.386Z,74.05
2023-11-03T03:49:36.867Z,74.70
2023-11-03T03:52:03.324Z,74.69
2023-11-03T03:54:29.780Z,74.15
2023-11-03T03:56:56.239Z,75.45
2023-11-03T03:59:22.778Z,75.29
2023-11-03T04:01:49.241Z,74.95
2023-11-03T04:04:15.774Z,74.86
2023-11-03T04:06:42.334Z,74.90
2023-11-03T04:09:08.815Z,74.38
2023-11-03T04:11:35.271Z,74.50
2023-11-03T04:14:01.763Z,73.73
2023-11-03T04:16:28.910Z,74.05
2023-11-03T04:18:56.132Z,74.56
2023-11-03T04:21:22.607Z,74.01
2023-11-03T04:23:49.063Z,74.63
2023-11-03T04:26:15.528Z,74.35
2023-11-03T04:28:42.008Z,74.63
2023-11-03T04:31:08.478Z,75.60
2023-11-03T04:33:35.057Z,75.95
2023-11-03T04:36:01.546Z,76.04
2023-11-03T04:38:28.005Z,76.14
2023-11-03T04:40:54.475Z,76.01
2023-11-03T04:43:20.932Z,76.85
2023-11-03T04:45:47.387Z,76.81
2023-11-03T04:48:13.843Z,77.20
2023-11-03T04:50:40.355Z,77.60
2023-11-03T04:53:08.034Z,78.07
2023-11-03T04:55:34.903Z,78.23
2023-11-03T04:58:01.380Z,78.09
2023-11-03T05:00:27.840Z,78.22
2023-11-03T05:02:54.372Z,77.86
2023-11-03T05:05:20.923Z,77.72
2023-11-03T05:07:47.435Z,77.66
2023-11-03T05:10:13.926Z,77.35
2023-11-03T05:12:40.456Z,77.45
2023-11-03T05:15:06.961Z,77.43
2023-11-03T05:17:33.508Z,76.92
2023-11-03T05:19:59.999Z,76.75
2023-11-03T05:22:26.479Z,76.04
2023-11-03T05:24:52.988Z,76.20
2023-11-03T05:27:19.513Z,76.36
2023-11-03T05:29:46.050Z,76.37
2023-11-03T05:32:12.571Z,76.27
2023-11-03T05:34:39.029Z,76.48
2023-11-03T05:37:05.530Z,76.43
2023-11-03T05:39:32.455Z,76.28
2023-11-03T05:41:58.927Z,76.02
2023-11-03T05:44:25.421Z,75.87
2023-11-03T05:46:51.922Z,75.72
2023-11-03T05:49:18.482Z,74.61
2023-11-03T05:51:45.065Z,72.79
2023-11-03T05:54:11.530Z,72.64
2023-11-03T05:56:37.982Z,69.50
2023-11-03T05:59:04.758Z,69.47
2023-11-03T06:01:31.263Z,68.90
2023-11-03T06:03:57.798Z,70.93
2023-11-03T06:06:24.287Z,71.35
2023-11-03T06:08:50.756Z,72.02
2023-11-03T06:11:17.216Z,72.87
2023-11-03T06:13:43.675Z,72.82
2023-11-03T06:16:10.175Z,73.01
2023-11-03T06:18:36.712Z,73.79
2023-11-03T06:21:03.248Z,73.79
2023-11-03T06:23:29.705Z,74.57
2023-11-03T06:25:56.148Z,74.58
2023-11-03T06:28:22.649Z,73.53
2023-11-03T06:30:49.165Z,73.86
2023-11-03T06:33:15.616Z,73.94
2023-11-03T06:35:42.079Z,73.67
2023-11-03T06:38:08.546Z,74.38
2023-11-03T06:40:35.016Z,74.45
2023-11-03T06:43:01.509Z,74.09
2023-11-03T06:45:27.994Z,74.11
2023-11-03T06:47:54.511Z,73.93
2023-11-03T06:50:20.981Z,73.14
2023-11-03T06:52:47.512Z,73.30
2023-11-03T06:55:14.511Z,72.80
2023-11-03T06:57:41.216Z,72.91
2023-11-03T07:00:07.777Z,72.36
2023-11-03T07:02:34.371Z,72.70
2023-11-03T07:05:00.952Z,72.89
2023-11-03T07:07:27.424Z,72.79
2023-11-03T07:09:53.917Z,72.92
2023-11-03T07:12:20.993Z,72.04
2023-11-03T07:14:47.897Z,72.71
2023-11-03T07:17:14.376Z,72.51
2023-11-03T07:19:40.952Z,73.23
2023-11-03T07:22:07.493Z,73.10
2023-11-03T07:24:33.949Z,72.62
2023-11-03T07:27:00.431Z,72.89
2023-11-03T07:29:26.896Z,72.63
2023-11-03T07:31:53.337Z,72.02
2023-11-03T07:34:20.058Z,72.79
2023-11-03T07:36:46.633Z,72.33
2023-11-03T07:39:13.082Z,72.71
2023-11-03T07:41:39.538Z,73.00
2023-11-03T07:44:06.167Z,73.09
2023-11-03T07:46:32.659Z,73.16
2023-11-03T07:48:59.266Z,73.88
2023-11-03T07:51:25.962Z,74.84
2023-11-03T07:53:54.569Z,73.22
2023-11-03T07:56:22.254Z,73.54
2023-11-03T07:59:01.590Z,73.91
2023-11-03T08:01:28.054Z,73.60
2023-11-03T08:03:54.604Z,74.12
2023-11-03T08:06:21.157Z,74.24
2023-11-03T08:08:47.658Z,74.59
2023-11-03T08:11:14.131Z,73.32
2023-11-03T08:13:40.578Z,72.42
2023-11-03T08:16:07.060Z,72.98
2023-11-03T08:18:33.549Z,73.70
2023-11-03T08:21:00.026Z,73.16
2023-11-03T08:23:26.499Z,72.95
2023-11-03T08:25:52.929Z,72.40
2023-11-03T08:28:19.437Z,72.48
2023-11-03T08:30:46.047Z,72.11
2023-11-03T08:33:12.581Z,71.89
2023-11-03T08:35:39.079Z,72.53
2023-11-03T08:38:05.541Z,71.06
2023-11-03T08:40:32.112Z,71.94
2023-11-03T08:42:58.620Z,70.84
2023-11-03T08:45:26.675Z,70.90
2023-11-03T08:47:53.331Z,71.25
2023-11-03T08:50:19.806Z,71.31
2023-11-03T08:52:46.339Z,70.19
2023-11-03T08:55:12.920Z,70.30
2023-11-03T08:57:39.393Z,69.14
2023-11-03T09:00:05.874Z,67.87
2023-11-03T09:02:32.417Z,68.40
2023-11-03T09:04:58.916Z,67.80
2023-11-03T09:07:26.244Z,67.98
2023-11-03T09:09:52.728Z,69.32
2023-11-03T09:12:19.235Z,68.13
2023-11-03T09:14:45.779Z,66.63
2023-11-03T09:17:12.265Z,66.64
2023-11-03T09:19:38.746Z,66.94
2023-11-03T09:22:05.242Z,68.10
2023-11-03T09:24:31.769Z,68.06
2023-11-03T09:27:04.389Z,67.42
2023-11-03T09:29:35.467Z,66.64
2023-11-03T09:32:01.974Z,66.63
2023-11-03T09:34:30.364Z,66.27
2023-11-03T09:36:57.714Z,66.08
2023-11-03T09:39:24.187Z,64.64
2023-11-03T09:41:50.649Z,64.29
2023-11-03T09:44:17.117Z,65.46
2023-11-03T09:46:43.573Z,66.27
2023-11-03T09:49:10.060Z,65.41
2023-11-03T09:51:36.558Z,65.52
2023-11-03T09:54:03.033Z,65.15
2023-11-03T09:56:29.494Z,64.01
2023-11-03T09:58:56.008Z,65.19
2023-11-03T10:01:22.589Z,65.05
2023-11-03T10:03:49.181Z,65.67
2023-11-03T10:06:15.741Z,66.67
2023-11-03T10:08:42.197Z,66.20
2023-11-03T10:11:08.686Z,66.51
2023-11-03T10:13:35.194Z,65.87
2023-11-03T10:16:01.693Z,65.67
2023-11-03T10:18:28.198Z,65.35
2023-11-03T10:20:54.714Z,65.51
2023-11-03T10:23:21.200Z,66.11
2023-11-03T10:25:47.652Z,66.33
2023-11-03T10:28:14.149Z,66.22
2023-11-03T10:30:40.620Z,66.72
2023-11-03T10:33:07.140Z,67.41
2023-11-03T10:35:33.640Z,66.88
2023-11-03T10:38:00.090Z,66.99
2023-11-03T10:40:26.601Z,66.96
2023-11-03T10:42:53.230Z,67.23
2023-11-03T10:45:20.100Z,67.70
2023-11-03T10:47:46.707Z,66.04
2023-11-03T10:50:13.421Z,67.23
2023-11-03T10:52:40.024Z,66.91
2023-11-03T10:55:06.683Z,68.37
2023-11-03T10:57:39.893Z,67.96
2023-11-03T11:00:08.043Z,67.61
2023-11-03T11:02:34.681Z,67.11
2023-11-03T11:05:01.255Z,68.74
2023-11-03T11:07:27.753Z,66.45
2023-11-03T11:09:54.335Z,66.04
2023-11-03T11:12:21.371Z,66.32
2023-11-03T11:14:48.954Z,66.15
2023-11-03T11:17:15.873Z,65.77
2023-11-03T11:19:42.381Z,65.72
2023-11-03T11:22:08.903Z,65.57
2023-11-03T11:24:35.399Z,65.51
2023-11-03T11:27:01.865Z,65.15
2023-11-03T11:29:28.371Z,64.30
2023-11-03T11:31:54.872Z,64.63
2023-11-03T11:34:21.569Z,64.83
2023-11-03T11:36:48.182Z,65.70
2023-11-03T11:39:16.842Z,64.59
2023-11-03T11:41:44.436Z,63.97
2023-11-03T11:44:12.063Z,62.53
2023-11-03T11:46:39.637Z,62.32
2023-11-03T11:49:08.101Z,63.08
2023-11-03T11:51:34.760Z,63.93
2023-11-03T11:54:01.376Z,63.54
2023-11-03T11:56:27.955Z,63.66
2023-11-03T11:58:55.663Z,63.06
2023-11-03T12:01:22.663Z,63.07
2023-11-03T12:03:49.212Z,63.70
2023-11-03T12:06:17.315Z,63.70
2023-11-03T12:08:43.963Z,64.81
2023-11-03T12:11:11.479Z,64.65
2023-11-03T12:13:39.071Z,63.77
2023-11-03T12:16:05.784Z,64.11
2023-11-03T12:18:32.329Z,63.33
2023-11-03T12:20:58.813Z,64.34
2023-11-03T12:23:25.440Z,65.13
2023-11-03T12:25:52.014Z,64.73
2023-11-03T12:28:19.684Z,64.99
2023-11-03T12:30:47.199Z,65.61
2023-11-03T12:33:13.841Z,65.28
2023-11-03T12:35:40.368Z,64.86
2023-11-03T12:38:07.046Z,66.04
2023-11-03T12:40:34.609Z,65.16
2023-11-03T12:43:02.200Z,63.78
2023-11-03T12:45:29.756Z,64.61
2023-11-03T12:47:56.777Z,63.64
2023-11-03T12:50:23.957Z,63.96
2023-11-03T12:52:50.582Z,65.46
2023-11-03T12:55:18.220Z,65.90
2023-11-03T12:57:44.743Z,65.98
2023-11-03T13:00:12.316Z,65.25
2023-11-03T13:02:39.907Z,65.55
2023-11-03T13:05:06.403Z,65.15
2023-11-03T13:07:33.097Z,65.35
2023-11-03T13:09:59.738Z,66.29
2023-11-03T13:12:26.331Z,66.12
2023-11-03T13:14:52.770Z,65.51
2023-11-03T13:17:19.524Z,66.02
2023-11-03T13:19:47.072Z,65.71
2023-11-03T13:22:14.683Z,66.57
2023-11-03T13:24:41.264Z,65.72
2023-11-03T13:27:08.848Z,66.73
2023-11-03T13:29:35.289Z,66.76
2023-11-03T13:32:01.759Z,67.89
2023-11-03T13:34:28.322Z,67.72
2023-11-03T13:36:54.814Z,67.59
2023-11-03T13:39:21.268Z,68.15
2023-11-03T13:41:47.724Z,67.35
2023-11-03T13:44:14.174Z,67.54
2023-11-03T13:46:40.825Z,67.95
2023-11-03T13:49:07.478Z,67.51
2023-11-03T13:51:34.004Z,67.76
2023-11-03T13:54:00.478Z,67.65
2023-11-03T13:56:27.077Z,69.58
2023-11-03T13:58:53.586Z,69.23
2023-11-03T14:01:20.086Z,69.65
2023-11-03T14:03:46.567Z,69.46
2023-11-03T14:06:13.062Z,68.35
2023-11-03T14:08:39.523Z,69.45
2023-11-03T14:11:06.001Z,69.72
2023-11-03T14:13:32.473Z,69.94
2023-11-03T14:15:58.998Z,69.17
2023-11-03T14:18:25.488Z,69.77
2023-11-03T14:20:52.008Z,69.26
2023-11-03T14:23:18.442Z,69.58
2023-11-03T14:25:44.970Z,68.19
2023-11-03T14:28:11.474Z,69.95
2023-11-03T14:30:37.966Z,69.05
2023-11-03T14:33:04.495Z,68.59
2023-11-03T14:35:30.992Z,67.84
2023-11-03T14:37:57.448Z,66.68
2023-11-03T14:40:23.964Z,67.01
2023-11-03T14:42:50.478Z,66.38
2023-11-03T14:45:17.113Z,67.01
2023-11-03T14:47:43.648Z,67.62
2023-11-03T14:50:10.161Z,67.56
2023-11-03T14:52:36.698Z,67.07
2023-11-03T14:55:03.186Z,67.25
2023-11-03T14:57:29.655Z,67.58
2023-11-03T14:59:56.132Z,68.19
2023-11-03T15:02:22.611Z,67.31
2023-11-03T15:04:49.205Z,68.60
2023-11-03T15:07:15.785Z,68.07
2023-11-03T15:09:42.274Z,69.22
2023-11-03T15:12:08.739Z,69.27
2023-11-03T15:14:35.221Z,69.34
2023-11-03T15:17:01.747Z,68.77
2023-11-03T15:19:28.277Z,69.28
2023-11-03T15:21:54.767Z,69.59
2023-11-03T15:24:21.236Z,69.09
2023-11-03T15:26:47.691Z,66.86
2023-11-03T15:29:14.144Z,66.70
2023-11-03T15:31:40.643Z,66.49
2023-11-03T15:34:07.152Z,67.24
2023-11-03T15:36:33.625Z,66.49
2023-11-03T15:39:00.081Z,66.35
2023-11-03T15:41:29.091Z,65.77
2023-11-03T15:43:56.018Z,65.91
2023-11-03T15:46:22.540Z,66.30
2023-11-03T15:48:49.065Z,65.95
2023-11-03T15:51:15.606Z,65.49
2023-11-03T15:53:42.042Z,65.42
2023-11-03T15:56:08.545Z,66.55
2023-11-03T15:58:35.061Z,66.29
2023-11-03T16:01:01.591Z,66.17
2023-11-03T16:03:28.173Z,65.63
2023-11-03T16:05:54.817Z,66.43
2023-11-03T16:08:21.297Z,65.57
2023-11-03T16:10:47.914Z,66.03
2023-11-03T16:13:14.863Z,64.95
2023-11-03T16:15:41.661Z,64.38
2023-11-03T16:18:08.193Z,65.27
2023-11-03T16:20:34.828Z,65.18
2023-11-03T16:23:01.320Z,65.38
2023-11-03T16:25:27.849Z,64.99
2023-11-03T16:27:54.337Z,65.27
2023-11-03T16:30:22.285Z,65.49
2023-11-03T16:32:49.209Z,65.24
2023-11-03T16:35:15.778Z,66.04
2023-11-03T16:37:42.331Z,66.17
2023-11-03T16:40:08.915Z,67.42
2023-11-03T16:42:35.400Z,67.92
2023-11-03T16:45:01.888Z,68.33
2023-11-03T16:47:28.373Z,68.58
2023-11-03T16:49:54.912Z,68.26
2023-11-03T16:52:21.473Z,68.70
2023-11-03T16:54:47.972Z,68.69
2023-11-03T16:57:14.433Z,69.22
2023-11-03T16:59:40.888Z,69.29
2023-11-03T17:02:07.879Z,69.68
2023-11-03T17:04:34.413Z,69.70
2023-11-03T17:07:00.908Z,70.14
2023-11-03T17:09:27.398Z,69.34
2023-11-03T17:11:53.869Z,69.40
2023-11-03T17:14:20.314Z,69.65
2023-11-03T17:16:46.906Z,69.95
2023-11-03T17:19:13.413Z,69.30
2023-11-03T17:21:39.893Z,68.81
2023-11-03T17:24:06.370Z,68.17
2023-11-03T17:26:32.886Z,68.36
2023-11-03T17:28:59.360Z,69.61
2023-11-03T17:31:25.854Z,68.49
2023-11-03T17:33:52.329Z,68.14
2023-11-03T17:36:18.798Z,68.13
2023-11-03T17:38:45.253Z,68.50
2023-11-03T17:41:11.753Z,68.08
2023-11-03T17:43:38.270Z,68.04
2023-11-03T17:46:04.842Z,68.33
2023-11-03T17:48:31.315Z,68.74
2023-11-03T17:50:57.779Z,68.71
2023-11-03T17:53:24.229Z,69.69
2023-11-03T17:55:50.797Z,68.91
2023-11-03T17:58:17.408Z,68.83
2023-11-03T18:00:43.902Z,69.39
2023-11-03T18:03:10.406Z,69.22
2023-11-03T18:05:36.903Z,70.34
2023-11-03T18:08:03.330Z,70.58
2023-11-03T18:10:29.946Z,70.49
2023-11-03T18:12:56.422Z,70.88
2023-11-03T18:15:22.913Z,70.76
2023-11-03T18:17:49.416Z,70.51
2023-11-03T18:20:15.904Z,70.74
2023-11-03T18:22:42.684Z,71.22
2023-11-03T18:25:09.375Z,71.82
2023-11-03T18:27:35.855Z,71.98
2023-11-03T18:30:02.324Z,71.87
2023-11-03T18:32:28.832Z,71.84
2023-11-03T18:34:55.436Z,72.81
2023-11-03T18:37:21.994Z,72.49
2023-11-03T18:39:48.489Z,73.46
2023-11-03T18:42:14.926Z,74.20
2023-11-03T18:44:41.365Z,74.76
2023-11-03T18:47:07.823Z,75.27
2023-11-03T18:52:03.677Z,75.58
2023-11-03T18:58:14.857Z,75.44
2023-11-03T19:04:22.072Z,75.99
2023-11-03T19:06:03.376Z,75.93
2023-11-03T19:07:48.406Z,75.76
2023-11-03T19:10:14.984Z,76.68
2023-11-03T19:12:41.493Z,76.46
2023-11-03T19:15:08.095Z,76.99
2023-11-03T19:17:36.837Z,76.01
2023-11-03T19:20:04.504Z,76.30
2023-11-03T19:22:30.949Z,76.79
2023-11-03T19:24:57.461Z,77.13
2023-11-03T19:27:23.919Z,77.45
2023-11-03T19:29:50.433Z,76.85
2023-11-03T19:32:16.911Z,76.85
2023-11-03T19:34:43.446Z,77.12
2023-11-03T19:37:09.892Z,76.74
2023-11-03T19:39:36.378Z,76.56
2023-11-03T19:42:02.919Z,76.79
2023-11-03T19:44:29.355Z,76.68
2023-11-03T19:46:55.838Z,77.10
2023-11-03T19:49:22.359Z,77.49
2023-11-03T19:51:48.835Z,77.74
2023-11-03T19:54:15.313Z,78.15
2023-11-03T19:56:41.887Z,78.13
2023-11-03T19:59:08.424Z,77.62
2023-11-03T20:01:34.910Z,77.94
2023-11-03T20:04:01.412Z,78.08
2023-11-03T20:06:27.885Z,77.34
2023-11-03T20:08:54.338Z,77.71
2023-11-03T20:11:22.168Z,77.39
2023-11-03T20:13:48.761Z,77.11
2023-11-03T20:16:15.216Z,77.65
2023-11-03T20:18:41.810Z,78.02
2023-11-03T20:21:09.650Z,77.88
2023-11-03T20:23:36.325Z,77.88
2023-11-03T20:26:02.760Z,77.92
2023-11-03T20:28:29.219Z,78.03
2023-11-03T20:30:55.664Z,78.16
2023-11-03T20:33:22.190Z,77.79
2023-11-03T20:35:48.710Z,78.22
2023-11-03T20:38:15.187Z,77.78
2023-11-03T20:40:41.696Z,76.95
2023-11-03T20:43:08.125Z,77.69
2023-11-03T20:45:34.619Z,77.51
2023-11-03T20:48:01.185Z,78.19
2023-11-03T20:50:27.719Z,78.21
2023-11-03T20:52:54.157Z,77.86
2023-11-03T20:55:20.611Z,77.71
2023-11-03T20:57:47.207Z,77.60
2023-11-03T21:00:13.859Z,77.92
2023-11-03T21:02:40.411Z,78.42
2023-11-03T21:05:07.009Z,77.87
2023-11-03T21:07:33.495Z,77.80
2023-11-03T21:09:59.952Z,77.66
2023-11-03T21:12:26.416Z,78.31
2023-11-03T21:14:52.890Z,78.25
2023-11-03T21:17:19.362Z,78.07
2023-11-03T21:19:45.870Z,77.59
2023-11-03T21:22:12.376Z,77.65
2023-11-03T21:24:38.891Z,77.81
2023-11-03T21:27:05.387Z,78.18
2023-11-03T21:29:31.854Z,78.15
2023-11-03T21:31:58.321Z,78.33
2023-11-03T21:34:24.947Z,78.13
2023-11-03T21:36:51.514Z,78.68
2023-11-03T21:39:18.392Z,78.00
2023-11-03T21:41:44.958Z,78.67
2023-11-03T21:44:11.427Z,78.69
2023-11-03T21:46:37.875Z,78.18
2023-11-03T21:49:04.422Z,78.73
2023-11-03T21:51:30.993Z,77.88
2023-11-03T21:53:57.459Z,78.06
2023-11-03T21:56:23.992Z,77.29
2023-11-03T21:58:50.439Z,77.23
2023-11-03T22:01:16.956Z,76.05
2023-11-03T22:03:43.460Z,76.57
2023-11-03T22:06:09.978Z,76.48
2023-11-03T22:08:36.474Z,76.58
2023-11-03T22:11:02.954Z,76.93
2023-11-03T22:13:29.420Z,77.95
2023-11-03T22:15:55.874Z,78.63
2023-11-03T22:18:22.558Z,79.08
2023-11-03T22:20:51.170Z,79.05
2023-11-03T22:23:18.328Z,79.28
2023-11-03T22:25:44.791Z,78.58
2023-11-03T22:28:11.249Z,78.45
2023-11-03T22:30:37.741Z,78.07
2023-11-03T22:33:04.279Z,78.59
2023-11-03T22:35:30.828Z,78.51
2023-11-03T22:37:57.309Z,78.32
2023-11-03T22:40:23.760Z,78.57
2023-11-03T22:42:50.258Z,78.37
2023-11-03T22:45:16.730Z,78.32
2023-11-03T22:47:43.356Z,78.58
2023-11-03T22:50:09.899Z,78.14
2023-11-03T22:52:36.360Z,78.58
2023-11-03T22:55:02.909Z,77.91
2023-11-03T22:57:29.433Z,77.94
2023-11-03T22:59:55.917Z,77.92
2023-11-03T23:02:22.427Z,77.78
2023-11-03T23:04:48.910Z,77.58
2023-11-03T23:07:15.370Z,77.30
2023-11-03T23:09:41.859Z,77.59
2023-11-03T23:12:08.418Z,77.44
2023-11-03T23:14:34.856Z,77.67
2023-11-03T23:17:01.292Z,77.54
2023-11-03T23:19:27.899Z,77.05
2023-11-03T23:21:54.411Z,77.46
2023-11-03T23:24:20.935Z,77.32
2023-11-03T23:26:47.407Z,77.51
2023-11-03T23:29:13.863Z,77.08
2023-11-03T23:31:40.324Z,76.86
2023-11-03T23:34:07.040Z,77.17
2023-11-03T23:36:33.776Z,77.15
2023-11-03T23:39:00.277Z,76.65
2023-11-03T23:41:26.773Z,76.85
2023-11-03T23:43:53.233Z,76.80
2023-11-03T23:46:19.677Z,77.21
2023-11-03T23:48:46.176Z,77.38
2023-11-03T23:51:12.809Z,77.45
2023-11-03T23:53:39.325Z,77.24
2023-11-03T23:56:05.799Z,77.72
2023-11-03T23:58:32.310Z,77.30
